createdAt,value
2023-01-11T00:01:10.551Z,6.17
2023-01-11T00:04:13.854Z,6.23
2023-01-11T00:07:16.822Z,6.63
2023-01-11T00:10:24.110Z,5.70
2023-01-11T00:13:27.132Z,6.67
2023-01-11T00:16:30.261Z,5.77
2023-01-11T00:19:33.347Z,6.47
2023-01-11T00:22:36.402Z,5.80
2023-01-11T00:25:40.736Z,6.80
2023-01-11T00:28:43.761Z,5.83
2023-01-11T00:31:46.735Z,5.83
2023-01-11T00:34:49.763Z,5.80
2023-01-11T00:37:54.231Z,5.70
2023-01-11T00:41:18.533Z,5.30
2023-01-11T00:44:39.172Z,5.73
2023-01-11T00:48:01.158Z,6.10
2023-01-11T00:51:04.388Z,5.60
2023-01-11T00:54:07.679Z,5.53
2023-01-11T00:57:12.095Z,5.57
2023-01-11T01:00:16.082Z,5.50
2023-01-11T01:03:19.148Z,6.73
2023-01-11T01:06:22.236Z,5.40
2023-01-11T01:09:26.899Z,5.60
2023-01-11T01:12:49.278Z,5.03
2023-01-11T01:15:58.662Z,4.67
2023-01-11T01:19:01.776Z,6.47
2023-01-11T01:22:06.003Z,5.20
2023-01-11T01:25:10.020Z,4.97
2023-01-11T01:28:14.362Z,5.43
2023-01-11T01:31:18.003Z,4.60
2023-01-11T01:34:21.053Z,5.30
2023-01-11T01:37:24.069Z,5.07
2023-01-11T01:40:27.120Z,4.37
2023-01-11T01:43:49.510Z,4.37
2023-01-11T01:46:52.735Z,5.07
2023-01-11T01:49:58.065Z,4.40
2023-01-11T01:53:06.839Z,5.03
2023-01-11T01:56:14.377Z,5.10
2023-01-11T01:59:21.424Z,5.23
2023-01-11T02:02:26.851Z,4.63
2023-01-11T02:05:30.043Z,4.83
2023-01-11T02:08:39.134Z,5.17
2023-01-11T02:11:43.444Z,6.30
2023-01-11T02:14:49.096Z,5.50
2023-01-11T02:17:54.792Z,5.10
2023-01-11T02:21:20.913Z,4.83
2023-01-11T02:24:54.976Z,5.43
2023-01-11T02:28:10.947Z,5.40
2023-01-11T02:31:29.187Z,5.37
2023-01-11T02:34:41.896Z,5.20
2023-01-11T02:38:01.610Z,4.23
2023-01-11T02:41:11.502Z,4.83
2023-01-11T02:44:39.601Z,5.30
2023-01-11T02:47:54.435Z,5.20
2023-01-11T02:51:03.779Z,5.40
2023-01-11T02:54:10.811Z,5.00
2023-01-11T02:57:16.585Z,4.17
2023-01-11T03:00:22.475Z,4.87
2023-01-11T03:03:28.636Z,5.13
2023-01-11T03:06:35.657Z,4.57
2023-01-11T03:09:52.650Z,4.07
2023-01-11T03:13:09.949Z,4.27
2023-01-11T03:16:25.670Z,4.80
2023-01-11T03:19:39.003Z,4.70
2023-01-11T03:22:57.042Z,4.13
2023-01-11T03:26:04.908Z,4.37
2023-01-11T03:29:17.965Z,4.50
2023-01-11T03:32:29.590Z,3.93
2023-01-11T03:35:40.744Z,4.70
2023-01-11T03:38:49.657Z,3.90
2023-01-11T03:41:57.386Z,5.03
2023-01-11T03:45:02.536Z,4.57
2023-01-11T03:48:12.989Z,3.90
2023-01-11T03:51:22.672Z,4.97
2023-01-11T03:54:29.187Z,4.47
2023-01-11T03:57:36.988Z,3.77
2023-01-11T04:00:42.888Z,4.37
2023-01-11T04:03:47.302Z,4.47
2023-01-11T04:06:50.424Z,4.60
2023-01-11T04:09:53.580Z,4.43
2023-01-11T04:12:57.134Z,5.03
2023-01-11T04:16:00.275Z,4.30
2023-01-11T04:19:04.785Z,4.00
2023-01-11T04:22:07.876Z,3.70
2023-01-11T04:25:11.478Z,3.40
2023-01-11T04:28:14.495Z,4.50
2023-01-11T04:31:20.296Z,4.47
2023-01-11T04:34:24.732Z,4.27
2023-01-11T04:37:27.935Z,4.40
2023-01-11T04:40:31.072Z,3.90
2023-01-11T04:43:33.152Z,3.97
2023-01-11T04:46:36.390Z,4.00
2023-01-11T04:49:40.769Z,4.43
2023-01-11T04:52:43.729Z,4.20
2023-01-11T04:55:47.494Z,3.73
2023-01-11T04:58:50.619Z,4.07
2023-01-11T05:01:53.687Z,4.47
2023-01-11T05:04:58.040Z,3.77
2023-01-11T05:08:01.109Z,4.13
2023-01-11T05:11:09.204Z,4.60
2023-01-11T05:14:12.840Z,4.13
2023-01-11T05:17:17.176Z,3.83
2023-01-11T05:20:21.559Z,4.60
2023-01-11T05:23:24.739Z,4.40
2023-01-11T05:26:32.690Z,4.03
2023-01-11T05:29:37.671Z,3.93
2023-01-11T05:32:40.786Z,4.30
2023-01-11T05:35:45.446Z,4.13
2023-01-11T05:38:50.544Z,3.83
2023-01-11T05:41:53.687Z,4.00
2023-01-11T05:45:14.652Z,5.27
2023-01-11T05:48:20.570Z,4.20
2023-01-11T05:51:25.027Z,4.30
2023-01-11T05:54:29.005Z,4.70
2023-01-11T05:57:36.879Z,4.10
2023-01-11T06:00:43.353Z,4.80
2023-01-11T06:03:48.808Z,4.53
2023-01-11T06:06:58.068Z,3.77
2023-01-11T06:10:01.418Z,4.23
2023-01-11T06:13:29.333Z,4.43
2023-01-11T06:20:01.065Z,4.20
2023-01-11T06:23:08.779Z,4.10
2023-01-11T06:26:16.622Z,3.47
2023-01-11T06:29:35.128Z,4.20
2023-01-11T06:32:43.561Z,3.73
2023-01-11T06:35:57.157Z,4.13
2023-01-11T06:39:13.381Z,4.27
2023-01-11T06:42:20.457Z,4.27
2023-01-11T06:45:23.688Z,4.63
2023-01-11T06:48:27.402Z,3.67
2023-01-11T06:51:30.378Z,4.27
2023-01-11T06:54:34.760Z,3.60
2023-01-11T06:57:37.809Z,3.90
2023-01-11T07:00:57.713Z,3.87
2023-01-11T07:04:03.070Z,4.03
2023-01-11T07:07:06.081Z,4.10
2023-01-11T07:10:14.299Z,4.67
2023-01-11T07:13:17.891Z,4.57
2023-01-11T07:16:22.181Z,4.67
2023-01-11T07:19:25.392Z,5.80
2023-01-11T07:22:28.769Z,4.20
2023-01-11T07:25:39.879Z,4.50
2023-01-11T07:28:42.953Z,4.20
2023-01-11T07:31:48.137Z,4.57
2023-01-11T07:34:53.736Z,4.13
2023-01-11T07:37:56.876Z,3.53
2023-01-11T07:41:21.557Z,4.30
2023-01-11T07:44:28.001Z,4.63
2023-01-11T07:47:31.569Z,4.80
2023-01-11T07:50:35.107Z,4.27
2023-01-11T07:53:38.160Z,6.13
2023-01-11T07:56:42.554Z,4.10
2023-01-11T07:59:45.655Z,4.43
2023-01-11T08:02:53.855Z,4.07
2023-01-11T08:06:00.012Z,4.07
2023-01-11T08:09:03.913Z,3.90
2023-01-11T08:12:26.583Z,4.17
2023-01-11T08:15:29.755Z,4.53
2023-01-11T08:18:32.882Z,3.87
2023-01-11T08:21:36.023Z,3.73
2023-01-11T08:24:39.451Z,3.43
2023-01-11T08:27:43.897Z,4.50
2023-01-11T08:30:46.969Z,3.97
2023-01-11T08:33:50.402Z,3.37
2023-01-11T08:36:53.866Z,3.83
2023-01-11T08:39:58.272Z,4.30
2023-01-11T08:43:03.407Z,3.77
2023-01-11T08:46:07.131Z,4.17
2023-01-11T08:49:12.114Z,3.90
2023-01-11T08:52:15.489Z,3.83
2023-01-11T08:55:19.300Z,3.50
2023-01-11T08:58:23.796Z,4.47
2023-01-11T09:01:27.011Z,3.77
2023-01-11T09:04:30.188Z,4.00
2023-01-11T09:07:33.645Z,3.90
2023-01-11T09:10:39.418Z,4.00
2023-01-11T09:13:43.881Z,4.53
2023-01-11T09:16:47.048Z,4.50
2023-01-11T09:19:51.168Z,4.10
2023-01-11T09:22:54.444Z,3.50
2023-01-11T09:25:57.868Z,3.70
2023-01-11T09:29:02.775Z,4.10
2023-01-11T09:32:07.089Z,4.20
2023-01-11T09:35:16.999Z,3.70
2023-01-11T09:38:20.432Z,4.03
2023-01-11T09:41:42.756Z,4.83
2023-01-11T09:44:52.971Z,5.93
2023-01-11T09:48:06.886Z,4.97
2023-01-11T09:51:12.541Z,4.43
2023-01-11T09:54:19.985Z,5.40
2023-01-11T09:57:38.227Z,4.37
2023-01-11T10:00:54.140Z,4.60
2023-01-11T10:04:32.822Z,4.33
2023-01-11T10:18:22.928Z,4.47
2023-01-11T10:19:32.171Z,5.30
2023-01-11T10:22:33.462Z,5.27
2023-01-11T10:25:44.529Z,5.43
2023-01-11T10:29:09.836Z,6.10
2023-01-11T10:32:34.734Z,5.63
2023-01-11T10:36:05.832Z,5.23
2023-01-11T10:39:31.940Z,6.47
2023-01-11T10:42:47.617Z,5.50
2023-01-11T10:45:59.332Z,4.80
2023-01-11T10:49:35.919Z,4.33
2023-01-11T10:53:03.486Z,4.43
2023-01-11T10:56:21.812Z,5.10
2023-01-11T10:59:52.484Z,5.63
2023-01-11T11:03:36.083Z,5.80
2023-01-11T11:06:47.571Z,6.60
2023-01-11T11:10:03.127Z,7.10
2023-01-11T11:13:14.682Z,5.63
2023-01-11T11:16:36.163Z,4.90
2023-01-11T11:19:41.169Z,6.40
2023-01-11T11:22:52.816Z,5.90
2023-01-11T11:25:59.998Z,4.90
2023-01-11T11:29:06.455Z,4.73
2023-01-11T11:32:19.859Z,4.27
2023-01-11T11:35:36.727Z,4.43
2023-01-11T11:38:42.234Z,4.60
2023-01-11T11:41:52.781Z,5.07
2023-01-11T11:45:17.471Z,6.83
2023-01-11T11:48:25.640Z,6.33
2023-01-11T11:51:28.788Z,4.63
2023-01-11T11:54:35.316Z,4.73
2023-01-11T11:57:44.059Z,4.57
2023-01-11T12:00:49.677Z,4.73
2023-01-11T12:03:55.907Z,5.67
2023-01-11T12:07:10.477Z,5.77
2023-01-11T12:10:17.250Z,5.67
2023-01-11T12:13:33.923Z,4.67
2023-01-11T12:16:40.774Z,4.77
2023-01-11T12:19:47.866Z,5.93
2023-01-11T12:22:52.011Z,5.20
2023-01-11T12:26:22.548Z,4.83
2023-01-11T12:29:51.999Z,5.20
2023-01-11T12:33:57.424Z,6.57
2023-01-11T12:38:12.683Z,4.20
2023-01-11T12:41:44.957Z,5.77
2023-01-11T12:45:08.663Z,4.97
2023-01-11T12:48:38.982Z,4.77
2023-01-11T12:56:31.553Z,4.83
2023-01-11T13:00:15.004Z,4.43
2023-01-11T13:03:42.003Z,5.20
2023-01-11T13:06:53.978Z,5.97
2023-01-11T13:10:26.965Z,6.13
2023-01-11T13:13:44.545Z,4.93
2023-01-11T13:16:58.296Z,5.27
2023-01-11T13:20:28.081Z,6.23
2023-01-11T13:23:42.045Z,5.50
2023-01-11T13:26:51.062Z,5.53
2023-01-11T13:29:57.057Z,5.60
2023-01-11T13:33:11.648Z,5.80
2023-01-11T13:36:23.693Z,5.70
2023-01-11T13:39:33.741Z,6.43
2023-01-11T13:42:41.396Z,5.53
2023-01-11T13:45:50.078Z,5.37
2023-01-11T13:49:01.696Z,5.37
2023-01-11T13:52:12.161Z,5.13
2023-01-11T13:55:26.084Z,5.13
2023-01-11T13:58:37.088Z,4.70
2023-01-11T14:01:49.894Z,4.70
2023-01-11T14:05:02.265Z,5.63
2023-01-11T14:08:23.679Z,4.90
2023-01-11T14:11:38.751Z,4.83
2023-01-11T14:15:08.719Z,4.00
2023-01-11T14:18:26.078Z,5.33
2023-01-11T14:21:43.236Z,4.83
2023-01-11T14:24:55.103Z,5.07
2023-01-11T14:28:13.879Z,4.37
2023-01-11T14:31:39.481Z,5.30
2023-01-11T14:35:20.192Z,4.93
2023-01-11T14:39:01.357Z,4.37
2023-01-11T14:42:31.928Z,4.83
2023-01-11T14:45:55.374Z,4.10
2023-01-11T14:49:13.582Z,4.13
2023-01-11T14:52:34.560Z,4.40
2023-01-11T14:55:46.438Z,4.80
2023-01-11T14:59:06.682Z,4.33
2023-01-11T15:02:29.598Z,4.10
2023-01-11T15:05:43.982Z,4.27
2023-01-11T15:08:55.169Z,5.33
2023-01-11T15:12:17.519Z,4.00
2023-01-11T15:15:45.249Z,5.50
2023-01-11T15:18:47.552Z,4.70
2023-01-11T15:21:53.265Z,4.67
2023-01-11T15:25:00.262Z,5.50
2023-01-11T15:28:35.010Z,4.97
2023-01-11T15:31:47.116Z,6.43
2023-01-11T15:34:51.613Z,5.27
2023-01-11T15:38:03.590Z,5.03
2023-01-11T15:41:35.395Z,6.60
2023-01-11T15:45:14.531Z,5.87
2023-01-11T15:48:32.600Z,5.30
2023-01-11T15:52:14.712Z,5.17
2023-01-11T15:56:09.861Z,4.97
2023-01-11T15:59:53.728Z,5.53
2023-01-11T16:03:52.443Z,7.37
2023-01-11T16:07:04.860Z,5.33
2023-01-11T16:10:36.886Z,5.67
2023-01-11T16:13:58.213Z,5.97
2023-01-11T16:17:04.215Z,6.13
2023-01-11T16:20:27.371Z,5.73
2023-01-11T16:23:33.032Z,4.97
2023-01-11T16:26:37.586Z,5.67
2023-01-11T16:29:40.816Z,5.07
2023-01-11T16:32:45.161Z,4.93
2023-01-11T16:35:48.299Z,5.37
2023-01-11T16:39:02.099Z,5.20
2023-01-11T16:42:11.879Z,5.33
2023-01-11T16:45:22.332Z,5.80
2023-01-11T16:48:30.471Z,5.90
2023-01-11T16:51:38.388Z,5.70
2023-01-11T16:54:43.919Z,5.33
2023-01-11T16:57:51.379Z,4.67
2023-01-11T17:01:00.521Z,5.20
2023-01-11T17:04:10.108Z,5.57
2023-01-11T17:07:22.579Z,5.93
2023-01-11T17:10:31.011Z,6.27
2023-01-11T17:14:20.542Z,6.13
2023-01-11T17:17:25.411Z,6.10
2023-01-11T17:20:33.405Z,5.70
2023-01-11T17:23:53.506Z,6.00
2023-01-11T17:28:03.723Z,6.97
2023-01-11T17:31:11.365Z,6.60
2023-01-11T17:34:20.444Z,6.33
2023-01-11T17:37:27.004Z,6.50
2023-01-11T17:40:35.490Z,6.53
2023-01-11T17:43:57.741Z,7.07
2023-01-11T17:47:04.740Z,7.33
2023-01-11T17:50:21.383Z,7.00
2023-01-11T17:53:27.477Z,6.97
2023-01-11T17:56:43.548Z,6.97
2023-01-11T17:59:48.007Z,7.83
2023-01-11T18:02:52.398Z,7.77
2023-01-11T18:05:55.583Z,7.67
2023-01-11T18:09:00.854Z,7.50
2023-01-11T18:12:11.014Z,8.03
2023-01-11T18:15:31.937Z,8.30
2023-01-11T18:18:45.242Z,9.53
2023-01-11T18:22:40.724Z,8.07
2023-01-11T18:25:46.103Z,9.27
2023-01-11T18:28:51.882Z,8.70
2023-01-11T18:31:56.831Z,7.90
2023-01-11T18:35:13.566Z,9.03
2023-01-11T18:38:19.078Z,9.43
2023-01-11T18:41:40.818Z,9.57
2023-01-11T18:44:49.394Z,9.47
2023-01-11T18:47:57.430Z,8.30
2023-01-11T18:51:01.504Z,11.37
2023-01-11T18:54:05.553Z,9.23
2023-01-11T18:57:09.134Z,12.37
2023-01-11T19:00:18.584Z,11.47
2023-01-11T19:03:25.290Z,9.47
2023-01-11T19:06:28.851Z,8.57
2023-01-11T19:09:37.677Z,8.87
2023-01-11T19:12:44.522Z,9.03
2023-01-11T19:15:50.304Z,10.77
2023-01-11T19:18:56.623Z,9.77
2023-01-11T19:22:03.021Z,10.60
2023-01-11T19:25:09.405Z,9.80
2023-01-11T19:28:15.187Z,9.93
2023-01-11T19:31:25.946Z,11.00
2023-01-11T19:34:30.480Z,10.23
2023-01-11T19:37:34.625Z,9.33
2023-01-11T19:40:50.389Z,10.00
2023-01-11T19:43:54.249Z,9.97
2023-01-11T19:47:10.450Z,10.53
2023-01-11T19:50:18.740Z,10.20
2023-01-11T19:53:27.764Z,9.13
2023-01-11T19:56:51.880Z,9.70
2023-01-11T19:59:57.135Z,9.87
2023-01-11T20:03:07.027Z,10.13
2023-01-11T20:06:22.095Z,8.97
2023-01-11T20:09:25.991Z,9.53
2023-01-11T20:12:31.704Z,10.03
2023-01-11T20:15:34.882Z,9.43
2023-01-11T20:18:42.390Z,8.83
2023-01-11T20:21:49.072Z,10.10
2023-01-11T20:24:52.253Z,9.60
2023-01-11T20:28:00.374Z,10.23
2023-01-11T20:31:09.976Z,9.60
2023-01-11T20:34:13.773Z,9.80
2023-01-11T20:37:18.703Z,10.60
2023-01-11T20:40:21.916Z,11.43
2023-01-11T20:43:35.249Z,9.27
2023-01-11T20:46:38.981Z,8.73
2023-01-11T20:49:43.724Z,9.20
2023-01-11T20:52:49.510Z,8.57
2023-01-11T20:55:52.573Z,9.60
2023-01-11T20:58:55.591Z,9.10
2023-01-11T21:01:58.898Z,8.33
2023-01-11T21:05:04.446Z,8.27
2023-01-11T21:08:08.930Z,7.33
2023-01-11T21:11:17.285Z,8.63
2023-01-11T21:14:21.289Z,8.07
2023-01-11T21:17:24.357Z,7.70
2023-01-11T21:20:27.769Z,7.10
2023-01-11T21:23:35.643Z,6.77
2023-01-11T21:26:38.872Z,7.50
2023-01-11T21:29:42.031Z,7.23
2023-01-11T21:32:47.680Z,7.70
2023-01-11T21:35:54.166Z,7.97
2023-01-11T21:39:00.327Z,8.73
2023-01-11T21:42:09.300Z,8.53
2023-01-11T21:45:12.808Z,8.30
2023-01-11T21:48:17.896Z,9.60
2023-01-11T21:51:22.244Z,8.30
2023-01-11T21:54:26.788Z,8.13
2023-01-11T21:57:29.931Z,8.97
2023-01-11T22:00:35.727Z,9.23
2023-01-11T22:03:42.045Z,9.90
2023-01-11T22:06:50.987Z,11.23
2023-01-11T22:10:04.629Z,9.00
2023-01-11T22:13:12.765Z,10.77
2023-01-11T22:16:18.213Z,9.53
2023-01-11T22:19:24.857Z,9.67
2023-01-11T22:22:28.212Z,10.30
2023-01-11T22:25:32.638Z,10.93
2023-01-11T22:28:56.068Z,9.87
2023-01-11T22:32:01.305Z,10.23
2023-01-11T22:35:04.797Z,9.43
2023-01-11T22:38:15.523Z,9.23
2023-01-11T22:41:25.980Z,10.00
2023-01-11T22:44:29.097Z,10.13
2023-01-11T22:47:35.136Z,9.60
2023-01-11T22:50:40.752Z,9.47
2023-01-11T22:53:46.300Z,9.77
2023-01-11T22:56:52.668Z,10.70
2023-01-11T22:59:57.616Z,8.57
2023-01-11T23:03:08.222Z,10.67
2023-01-11T23:06:16.951Z,9.97
2023-01-11T23:09:21.943Z,10.97
2023-01-11T23:12:44.665Z,10.07
2023-01-11T23:15:53.436Z,9.33
2023-01-11T23:18:56.697Z,10.23
2023-01-11T23:22:02.607Z,9.30
2023-01-11T23:25:07.286Z,10.10
2023-01-11T23:28:13.410Z,11.13
2023-01-11T23:31:19.097Z,11.43
2023-01-11T23:34:22.161Z,13.17
2023-01-11T23:37:25.478Z,10.50
2023-01-11T23:40:55.837Z,11.40
2023-01-11T23:43:59.780Z,13.03
2023-01-11T23:47:24.780Z,10.37
2023-01-11T23:50:27.868Z,10.53
2023-01-11T23:53:30.945Z,11.10
2023-01-11T23:56:35.294Z,10.27
2023-01-11T23:59:43.636Z,10.60
